Time;durP1;ratioP1;P1;durP2;ratioP2;P2;SDS_P1;SDS_P2;PMS_P1;PMS_P2;Temp;Humidity;BMP_temperature;BMP_pressure;BME280_temperature;BME280_humidity;BME280_pressure;Samples;Min_cycle;Max_cycle;Signal;HPM_P1;HPM_P2
2022/10/27 00:00:52;;;;;;;19.92;13.90;;;333.20;2329.60;;;;;;5012501;28;20423;-80
2022/10/27 00:03:18;;;;;;;28.48;16.05;;;333.10;2329.60;;;;;;5012668;28;20029;-80
2022/10/27 00:05:46;;;;;;;23.08;12.35;;;333.00;2329.60;;;;;;5013604;28;20085;-80
2022/10/27 00:08:14;;;;;;;23.83;13.55;;;333.00;2329.60;;;;;;5012695;28;20537;-82
2022/10/27 00:10:41;;;;;;;21.23;14.13;;;332.90;2329.60;;;;;;5012358;28;20076;-81
2022/10/27 00:13:07;;;;;;;25.63;15.98;;;333.00;2329.60;;;;;;5014147;28;20026;-80
2022/10/27 00:15:33;;;;;;;46.97;27.95;;;308.10;2304.00;;;;;;5030903;28;20038;-80
2022/10/27 00:17:58;;;;;;;26.95;17.00;;;308.10;2304.00;;;;;;5031148;28;20079;-80
2022/10/27 00:20:25;;;;;;;24.23;13.30;;;;;;;;;;5032796;28;20109;-80
2022/10/27 00:22:51;;;;;;;31.52;19.52;;;;;;;;;;5031893;28;20028;-80
2022/10/27 00:25:17;;;;;;;31.92;20.90;;;;;;;;;;5031785;28;20029;-80
2022/10/27 00:27:43;;;;;;;32.72;21.27;;;;;;;;;;5032027;28;20163;-78
2022/10/27 00:30:09;;;;;;;31.50;19.70;;;;;;;;;;5031977;28;20378;-79
2022/10/27 00:32:35;;;;;;;24.67;16.08;;;;;;;;;;5031690;28;20025;-79
2022/10/27 00:35:02;;;;;;;24.88;16.95;;;;;;;;;;5032106;28;20083;-80
2022/10/27 00:37:28;;;;;;;26.23;17.42;;;;;;;;;;5031872;28;20017;-79
2022/10/27 00:39:54;;;;;;;21.15;14.52;;;;;;;;;;5031629;28;20026;-80
2022/10/27 00:42:20;;;;;;;35.38;22.23;;;;;;;;;;5033250;28;20045;-81
2022/10/27 00:44:47;;;;;;;37.60;20.73;;;;;;;;;;5035492;28;20394;-81
2022/10/27 00:47:24;;;;;;;35.97;18.58;;;;;;;;;;5035486;28;20067;-80
2022/10/27 00:49:59;;;;;;;32.58;18.33;;;;;;;;;;5035813;28;20036;-80
2022/10/27 00:52:31;;;;;;;33.90;17.55;;;;;;;;;;5037012;28;20026;-78
2022/10/27 00:54:59;;;;;;;25.77;14.63;;;;;;;;;;5034894;28;20115;-80
2022/10/27 00:57:26;;;;;;;24.70;14.68;;;;;;;;;;5035467;28;20030;-80
2022/10/27 00:59:52;;;;;;;20.73;13.50;;;;;;;;;;5035377;28;20029;-79
2022/10/27 01:02:18;;;;;;;25.23;13.80;;;;;;;;;;5035402;28;20021;-79
2022/10/27 01:04:48;;;;;;;23.10;13.63;;;;;;;;;;5035512;28;20474;-79
2022/10/27 01:07:16;;;;;;;26.42;14.63;;;;;;;;;;5035210;28;20527;-80
2022/10/27 01:09:42;;;;;;;26.50;16.85;;;;;;;;;;5035470;28;20022;-80
2022/10/27 01:12:09;;;;;;;25.65;15.13;;;;;;;;;;5035513;28;20467;-80
2022/10/27 01:14:35;;;;;;;29.52;14.90;;;;;;;;;;5035228;28;20030;-80
2022/10/27 01:17:13;;;;;;;27.30;16.20;;;;;;;;;;5036617;28;20022;-81
2022/10/27 01:19:59;;;;;;;30.30;17.27;;;;;;;;;;5035051;28;20033;-81
2022/10/27 01:22:47;;;;;;;30.23;16.13;;;;;;;;;;4985393;28;20034;-80
2022/10/27 01:25:32;;;;;;;27.92;17.02;;;;;;;;;;5034843;28;20033;-80
2022/10/27 01:28:24;;;;;;;29.63;15.80;;;;;;;;;;5034643;28;20030;-79
2022/10/27 01:30:55;;;;;;;30.23;19.20;;;;;;;;;;5036608;28;20479;-80
2022/10/27 01:33:24;;;;;;;38.50;21.17;;;;;;;;;;5036484;28;20032;-80
2022/10/27 01:35:53;;;;;;;26.85;15.38;;;;;;;;;;5034565;28;20029;-80
2022/10/27 01:38:19;;;;;;;23.65;12.52;;;;;;;;;;5034879;28;20061;-81
2022/10/27 01:40:56;;;;;;;18.77;10.85;;;;;;;;;;5034474;28;20022;-81
2022/10/27 01:43:24;;;;;;;21.88;12.95;;;;;;;;;;5034490;28;20033;-80
2022/10/27 01:45:51;;;;;;;27.20;14.68;;;;;;;;;;5035684;28;20033;-81
2022/10/27 01:48:18;;;;;;;23.10;14.02;;;333.00;2329.60;;;;;;5034895;28;20025;-82
2022/10/27 01:50:44;;;;;;;18.75;12.38;;;;;;;;;;5035232;28;20026;-81
2022/10/27 01:53:11;;;;;;;17.98;11.07;;;332.80;2329.60;;;;;;5034882;28;20463;-81
2022/10/27 01:55:43;;;;;;;17.73;12.20;;;;;;;;;;5037440;28;20057;-80
2022/10/27 01:58:24;;;;;;;20.58;12.82;;;;;;;;;;5037541;28;20074;-81
2022/10/27 02:01:11;;;;;;;23.02;14.93;;;307.80;2304.00;;;;;;5037777;28;20529;-82
2022/10/27 02:03:43;;;;;;;24.13;16.35;;;;;;;;;;5037509;28;20033;-82
2022/10/27 02:06:32;;;;;;;27.63;16.27;;;;;;;;;;5055613;28;20028;-81
2022/10/27 02:09:04;;;;;;;23.58;13.80;;;;;;;;;;5060221;28;20120;-81
2022/10/27 02:11:33;;;;;;;21.65;12.57;;;;;;;;;;5036991;28;20032;-81
2022/10/27 02:14:00;;;;;;;14.68;10.02;;;;;;;;;;5055712;28;20027;-81
2022/10/27 02:16:28;;;;;;;17.70;10.48;;;;;;;;;;5037425;28;20024;-81
2022/10/27 02:19:06;;;;;;;22.48;12.27;;;;;;;;;;5055036;28;20036;-82
2022/10/27 02:21:34;;;;;;;18.92;11.82;;;;;;;;;;5055602;28;20482;-81
2022/10/27 02:24:00;;;;;;;27.88;14.57;;;;;;;;;;5037325;28;20021;-81
2022/10/27 02:26:31;;;;;;;27.58;15.02;;;;;;;;;;5037263;28;20035;-82
2022/10/27 02:29:04;;;;;;;27.48;13.75;;;;;;;;;;5054970;28;20433;-81
2022/10/27 02:31:35;;;;;;;23.08;13.30;;;;;;;;;;5037151;28;20474;-82
2022/10/27 02:34:03;;;;;;;24.90;13.75;;;;;;;;;;5037391;28;20116;-81
2022/10/27 02:36:29;;;;;;;21.65;12.50;;;;;;;;;;5031168;28;20551;-82
2022/10/27 02:38:55;;;;;;;20.83;12.10;;;;;;;;;;5050059;28;20029;-81
2022/10/27 02:41:21;;;;;;;24.50;14.15;;;;;;;;;;5049655;28;20021;-82
2022/10/27 02:43:47;;;;;;;19.15;11.75;;;;;;;;;;5052026;28;20029;-81
2022/10/27 02:46:14;;;;;;;18.25;9.73;;;;;;;;;;5049882;28;20029;-81
2022/10/27 02:48:40;;;;;;;18.63;10.02;;;;;;;;;;5050138;28;20025;-81
2022/10/27 02:51:06;;;;;;;17.30;10.23;;;;;;;;;;5035050;28;20026;-81
2022/10/27 02:53:32;;;;;;;18.63;12.23;;;;;;;;;;5042798;28;20054;-81
2022/10/27 02:55:58;;;;;;;24.00;14.40;;;;;;;;;;4995693;28;20070;-82
2022/10/27 02:58:24;;;;;;;23.85;13.88;;;;;;;;;;4995943;28;20093;-82
2022/10/27 03:00:54;;;;;;;21.25;12.38;;;;;;;;;;4994920;28;20150;-81
2022/10/27 03:03:21;;;;;;;19.58;12.65;;;;;;;;;;4995717;28;20033;-81
2022/10/27 03:05:47;;;;;;;22.48;13.18;;;;;;;;;;4993186;28;20125;-81
2022/10/27 03:08:13;;;;;;;21.15;12.50;;;;;;;;;;4993763;28;20057;-81
2022/10/27 03:10:39;;;;;;;23.77;12.23;;;;;;;;;;4994868;28;20018;-81
2022/10/27 03:13:05;;;;;;;20.30;11.05;;;;;;;;;;4993726;28;20062;-81
2022/10/27 03:15:31;;;;;;;23.88;11.43;;;;;;;;;;4993978;28;20041;-82
2022/10/27 03:17:58;;;;;;;31.88;14.55;;;;;;;;;;4993671;28;20022;-82
2022/10/27 03:20:24;;;;;;;42.70;18.02;;;;;;;;;;4993444;28;20030;-81
2022/10/27 03:22:50;;;;;;;36.63;15.70;;;;;;;;;;4993781;28;20026;-82
2022/10/27 03:25:16;;;;;;;28.08;14.43;;;;;;;;;;4993711;28;20086;-81
2022/10/27 03:27:43;;;;;;;23.60;11.48;;;;;;;;;;4993353;28;20029;-82
2022/10/27 03:30:10;;;;;;;24.08;12.60;;;;;;;;;;4997531;28;20030;-80
2022/10/27 03:32:37;;;;;;;41.00;18.90;;;;;;;;;;5002525;28;20146;-80
2022/10/27 03:35:04;;;;;;;97.13;38.30;;;;;;;;;;5001299;28;20034;-80
2022/10/27 03:37:30;;;;;;;29.23;14.70;;;;;;;;;;4995560;28;20110;-80
2022/10/27 03:39:56;;;;;;;21.38;10.85;;;;;;;;;;4993256;28;20026;-81
2022/10/27 03:42:22;;;;;;;19.13;10.68;;;;;;;;;;4992992;28;20022;-81
2022/10/27 03:44:48;;;;;;;17.52;10.45;;;;;;;;;;4993133;28;20061;-82
2022/10/27 03:47:14;;;;;;;19.30;10.65;;;;;;;;;;4993210;28;20029;-82
2022/10/27 03:49:40;;;;;;;20.63;10.50;;;;;;;;;;4992925;28;20076;-83
2022/10/27 03:52:06;;;;;;;21.33;12.35;;;;;;;;;;4993157;28;20022;-80
2022/10/27 03:54:32;;;;;;;21.25;11.43;;;;;;;;;;5004363;28;20054;-82
2022/10/27 03:56:58;;;;;;;18.58;10.90;;;;;;;;;;5012607;28;20026;-81
2022/10/27 03:59:25;;;;;;;20.10;9.88;;;;;;;;;;5012777;28;20021;-82
2022/10/27 04:01:51;;;;;;;15.35;10.13;;;;;;;;;;5012721;28;20026;-81
2022/10/27 04:04:17;;;;;;;18.10;9.75;;;;;;;;;;5012487;28;20022;-80
2022/10/27 04:06:43;;;;;;;18.10;9.75;;;;;;;;;;5012743;28;20080;-80
2022/10/27 04:09:09;;;;;;;16.30;10.82;;;;;;;;;;5012272;28;20075;-81
2022/10/27 04:11:35;;;;;;;23.67;12.32;;;;;;;;;;5012500;28;20029;-80
2022/10/27 04:14:01;;;;;;;18.77;11.13;;;;;;;;;;5011892;28;20030;-81
2022/10/27 04:16:27;;;;;;;18.60;10.57;;;;;;;;;;5013966;28;20022;-81
2022/10/27 04:18:53;;;;;;;21.05;12.05;;;;;;;;;;5016502;28;20022;-80
2022/10/27 04:21:20;;;;;;;24.33;13.88;;;;;;;;;;5017225;28;20486;-80
2022/10/27 04:23:45;;;;;;;38.20;21.15;;;282.50;2278.40;;;;;;5016057;28;20352;-80
2022/10/27 04:26:11;;;;;;;26.13;16.55;;;282.20;2278.40;;;;;;5016521;28;20033;-81
2022/10/27 04:28:37;;;;;;;20.25;11.95;;;;;;;;;;5017313;28;20030;-81
2022/10/27 04:31:04;;;;;;;20.27;12.65;;;;;;;;;;5016070;28;20053;-80
2022/10/27 04:33:30;;;;;;;24.13;13.05;;;;;;;;;;5016305;28;20472;-81
2022/10/27 04:35:56;;;;;;;27.10;16.60;;;;;;;;;;5017451;28;20026;-81
2022/10/27 04:38:22;;;;;;;27.02;13.45;;;;;;;;;;5037152;28;20446;-82
2022/10/27 04:40:48;;;;;;;23.77;12.20;;;;;;;;;;5036757;28;20109;-81
2022/10/27 04:43:15;;;;;;;23.23;13.65;;;;;;;;;;5035782;28;20382;-82
2022/10/27 04:45:41;;;;;;;23.77;14.80;;;;;;;;;;5036639;28;20480;-82
2022/10/27 04:48:07;;;;;;;32.15;13.48;;;;;;;;;;5035865;28;20022;-82
2022/10/27 04:50:33;;;;;;;24.00;12.45;;;;;;;;;;5036914;28;20405;-81
2022/10/27 04:53:01;;;;;;;32.22;17.45;;;;;;;;;;5036447;28;20093;-82
2022/10/27 04:55:28;;;;;;;20.33;13.73;;;;;;;;;;5035787;28;20136;-81
2022/10/27 04:57:54;;;;;;;20.30;11.57;;;;;;;;;;5035920;28;20021;-81
2022/10/27 05:00:20;;;;;;;22.95;11.20;;;;;;;;;;5035701;28;20026;-80
2022/10/27 05:02:52;;;;;;;18.83;11.05;;;;;;;;;;5036781;28;20032;-80
2022/10/27 05:05:18;;;;;;;24.67;11.75;;;;;;;;;;5035916;28;20040;-80
2022/10/27 05:07:50;;;;;;;27.95;18.00;;;;;;;;;;5036951;28;20581;-79
2022/10/27 05:10:16;;;;;;;23.35;12.93;;;;;;;;;;5035349;28;20071;-81
2022/10/27 05:12:42;;;;;;;24.55;15.02;;;;;;;;;;5035130;28;20033;-81
2022/10/27 05:15:08;;;;;;;24.92;13.10;;;;;;;;;;5035406;28;20048;-83
2022/10/27 05:17:38;;;;;;;22.55;13.95;;;;;;;;;;5035499;28;20017;-80
2022/10/27 05:20:04;;;;;;;27.00;13.70;;;;;;;;;;5035013;28;20045;-79
2022/10/27 05:22:30;;;;;;;23.33;13.32;;;;;;;;;;5036546;28;20049;-81
2022/10/27 05:24:57;;;;;;;32.28;13.88;;;;;;;;;;5036566;28;20099;-81
2022/10/27 05:27:23;;;;;;;27.13;14.43;;;;;;;;;;5034972;28;20064;-82
2022/10/27 05:29:49;;;;;;;27.95;16.25;;;;;;;;;;5034157;28;20021;-80
2022/10/27 05:32:15;;;;;;;29.45;15.75;;;;;;;;;;5034990;28;20048;-81
2022/10/27 05:34:42;;;;;;;32.72;16.30;;;256.60;2252.80;;;;;;5034682;28;20048;-80
2022/10/27 05:37:08;;;;;;;26.25;16.38;;;256.40;2252.80;;;;;;5034911;28;20029;-81
2022/10/27 05:39:33;;;;;;;24.63;14.48;;;256.50;2252.80;;;;;;5035994;28;20037;-82
2022/10/27 05:41:59;;;;;;;22.45;15.20;;;256.70;2252.80;;;;;;5034568;28;20359;-81
2022/10/27 05:44:25;;;;;;;29.58;14.18;;;256.80;2252.80;;;;;;5034040;28;20025;-82
2022/10/27 05:46:51;;;;;;;25.45;13.60;;;256.60;2252.80;;;;;;5034545;28;20561;-79
2022/10/27 05:49:17;;;;;;;26.40;13.93;;;256.70;2252.80;;;;;;5035492;28;20025;-82
2022/10/27 05:51:43;;;;;;;28.95;16.30;;;256.70;2252.80;;;;;;5034460;28;20391;-81
2022/10/27 05:54:08;;;;;;;30.20;17.95;;;256.60;2252.80;;;;;;5034265;28;20045;-81
2022/10/27 05:56:34;;;;;;;27.88;19.52;;;256.60;2252.80;;;;;;5034762;28;20087;-81
2022/10/27 05:59:00;;;;;;;40.95;19.55;;;256.70;2252.80;;;;;;5034666;28;20036;-81
2022/10/27 06:01:26;;;;;;;30.92;18.88;;;256.70;2252.80;;;;;;5035197;28;20032;-81
2022/10/27 06:03:52;;;;;;;33.08;15.88;;;256.70;2252.80;;;;;;5034924;28;20391;-81
2022/10/27 06:06:18;;;;;;;31.77;14.98;;;256.50;2252.80;;;;;;5034469;28;20038;-81
2022/10/27 06:08:43;;;;;;;24.35;15.18;;;256.70;2252.80;;;;;;5034251;28;20029;-82
2022/10/27 06:11:09;;;;;;;31.70;16.58;;;256.60;2252.80;;;;;;5034408;28;20379;-82
2022/10/27 06:13:35;;;;;;;23.38;15.05;;;256.60;2252.80;;;;;;5034207;28;20030;-81
2022/10/27 06:16:01;;;;;;;27.55;17.05;;;256.80;2252.80;;;;;;5015363;28;20064;-81
2022/10/27 06:18:27;;;;;;;26.20;16.48;;;256.70;2252.80;;;;;;5013640;28;20025;-80
2022/10/27 06:20:52;;;;;;;29.00;16.20;;;256.70;2252.80;;;;;;5015194;28;20034;-80
2022/10/27 06:23:18;;;;;;;29.17;16.27;;;256.50;2252.80;;;;;;5014286;28;20061;-81
2022/10/27 06:25:44;;;;;;;25.80;16.58;;;256.70;2252.80;;;;;;5014273;28;20095;-82
2022/10/27 06:28:10;;;;;;;33.03;18.10;;;256.80;2252.80;;;;;;5014139;28;20036;-80
2022/10/27 06:30:36;;;;;;;27.45;17.48;;;256.90;2252.80;;;;;;5013996;28;20049;-80
2022/10/27 06:33:01;;;;;;;27.33;18.80;;;256.90;2252.80;;;;;;5014328;28;20053;-80
2022/10/27 06:35:27;;;;;;;27.70;21.17;;;256.90;2252.80;;;;;;5014106;28;20477;-81
2022/10/27 06:37:53;;;;;;;33.65;20.88;;;256.90;2252.80;;;;;;5013971;28;20386;-81
2022/10/27 06:40:20;;;;;;;32.47;23.67;;;281.60;2278.40;;;;;;5014230;28;20022;-81
2022/10/27 06:42:48;;;;;;;29.38;21.05;;;281.60;2278.40;;;;;;5013918;28;20028;-81
2022/10/27 06:45:18;;;;;;;38.97;20.80;;;256.90;2252.80;;;;;;5020622;28;20065;-81
2022/10/27 06:47:44;;;;;;;31.83;21.33;;;281.70;2278.40;;;;;;5033619;28;20029;-81
2022/10/27 06:50:11;;;;;;;28.00;18.20;;;281.70;2278.40;;;;;;5034384;28;20021;-79
2022/10/27 06:52:38;;;;;;;23.60;17.95;;;281.80;2278.40;;;;;;5033670;28;20121;-81
2022/10/27 06:55:04;;;;;;;25.08;16.60;;;281.80;2278.40;;;;;;5033544;28;20076;-81
2022/10/27 06:57:41;;;;;;;33.65;17.55;;;281.90;2278.40;;;;;;5033360;28;20025;-81
2022/10/27 07:00:08;;;;;;;29.75;20.23;;;281.80;2278.40;;;;;;5034497;28;20022;-81
2022/10/27 07:02:34;;;;;;;29.77;17.75;;;281.90;2278.40;;;;;;5033231;28;20467;-81
2022/10/27 07:05:00;;;;;;;30.42;15.57;;;282.00;2278.40;;;;;;5032977;28;20040;-81
2022/10/27 07:07:26;;;;;;;21.73;14.18;;;282.10;2278.40;;;;;;5033604;28;20021;-81
2022/10/27 07:09:51;;;;;;;28.75;15.40;;;282.10;2278.40;;;;;;5034758;28;20427;-81
2022/10/27 07:12:17;;;;;;;33.00;16.85;;;282.10;2278.40;;;;;;5033120;28;20032;-81
2022/10/27 07:14:43;;;;;;;22.45;14.32;;;282.10;2278.40;;;;;;5028019;28;20502;-82
2022/10/27 07:17:09;;;;;;;24.52;15.02;;;282.20;2278.40;;;;;;5013625;28;20026;-82
2022/10/27 07:19:35;;;;;;;21.05;14.13;;;;;;;;;;5011955;28;20033;-80
2022/10/27 07:22:00;;;;;;;28.25;16.05;;;282.40;2278.40;;;;;;5013564;28;20032;-82
2022/10/27 07:24:26;;;;;;;18.17;11.73;;;282.50;2278.40;;;;;;5013224;28;20116;-81
2022/10/27 07:26:52;;;;;;;18.85;12.38;;;307.20;2304.00;;;;;;5018135;28;20111;-80
2022/10/27 07:29:18;;;;;;;17.52;10.80;;;307.40;2304.00;;;;;;5021765;28;20034;-79
2022/10/27 07:31:47;;;;;;;17.92;11.15;;;307.40;2304.00;;;;;;5018899;28;20468;-81
2022/10/27 07:34:13;;;;;;;17.58;12.35;;;;;;;;;;5012708;28;20030;-80
2022/10/27 07:36:39;;;;;;;20.33;12.68;;;;;;;;;;5013038;28;20032;-81
2022/10/27 07:39:06;;;;;;;20.23;11.50;;;;;;;;;;5012687;28;20153;-80
2022/10/27 07:41:32;;;;;;;17.15;9.77;;;308.00;2304.00;;;;;;5012898;28;20117;-82
2022/10/27 07:43:57;;;;;;;17.35;11.75;;;308.10;2304.00;;;;;;5013122;28;20121;-81
2022/10/27 07:46:23;;;;;;;19.77;11.23;;;332.90;2329.60;;;;;;5028668;28;20060;-81
2022/10/27 07:48:49;;;;;;;17.85;11.50;;;332.80;2329.60;;;;;;5033532;28;20036;-82
2022/10/27 07:51:15;;;;;;;15.48;10.32;;;332.90;2329.60;;;;;;5031580;28;20080;-81
2022/10/27 07:53:41;;;;;;;18.77;12.10;;;333.00;2329.60;;;;;;5031582;28;20068;-82
2022/10/27 07:56:07;;;;;;;18.05;10.02;;;333.20;2329.60;;;;;;5033683;28;20459;-81
2022/10/27 07:58:32;;;;;;;18.55;10.93;;;333.40;2329.60;;;;;;5032366;28;20033;-81
2022/10/27 08:00:59;;;;;;;20.30;10.48;;;333.40;2329.60;;;;;;5031949;28;20033;-79
2022/10/27 08:03:28;;;;;;;19.23;11.25;;;333.50;2329.60;;;;;;5033538;28;20021;-80
2022/10/27 08:05:55;;;;;;;17.00;11.63;;;333.60;2329.60;;;;;;5032234;28;20041;-81
2022/10/27 08:08:21;;;;;;;17.10;10.13;;;358.40;2329.60;;;;;;5032194;28;20124;-81
2022/10/27 08:10:50;;;;;;;20.17;10.70;;;358.70;2329.60;;;;;;5032151;28;20517;-81
2022/10/27 08:13:16;;;;;;;17.83;10.65;;;;;;;;;;5032441;28;20021;-82
2022/10/27 08:15:43;;;;;;;16.50;10.48;;;;;;;;;;5019505;28;20045;-82
2022/10/27 08:18:10;;;;;;;16.52;9.93;;;;;;;;;;5013557;28;20104;-82
2022/10/27 08:20:40;;;;;;;18.52;10.45;;;;;;;;;;5012872;28;20097;-81
2022/10/27 08:23:10;;;;;;;23.25;11.57;;;;;;;;;;5012269;28;20367;-83
2022/10/27 08:25:35;;;;;;;22.40;10.82;;;384.00;2329.60;;;;;;5012433;28;20056;-82
2022/10/27 08:28:01;;;;;;;20.42;10.07;;;359.30;2329.60;;;;;;5012441;28;20053;-80
2022/10/27 08:30:29;;;;;;;12.93;8.73;;;;;;;;;;5013597;28;20026;-80
2022/10/27 08:32:56;;;;;;;16.30;9.45;;;;;;;;;;5012437;28;20025;-82
2022/10/27 08:35:22;;;;;;;15.05;10.02;;;;;;;;;;5012044;28;20025;-81
2022/10/27 08:37:48;;;;;;;19.10;9.75;;;;;;;;;;5012260;28;20426;-80
2022/10/27 08:40:14;;;;;;;18.02;9.07;;;;;;;;;;5012319;28;20029;-80
2022/10/27 08:42:50;;;;;;;12.75;9.00;;;;;;;;;;5025629;28;20067;-80
2022/10/27 08:45:21;;;;;;;19.55;9.68;;;;;;;;;;5030173;28;20029;-82
2022/10/27 08:47:47;;;;;;;15.47;10.33;;;;;;;;;;5031616;28;20091;-81
2022/10/27 08:50:16;;;;;;;14.90;8.52;;;;;;;;;;5030736;28;20143;-81
2022/10/27 08:52:55;;;;;;;17.67;10.95;;;409.90;2355.20;;;;;;5031244;28;20471;-81
2022/10/27 08:55:36;;;;;;;17.25;11.35;;;409.70;2355.20;;;;;;5024679;28;20049;-80
2022/10/27 08:58:38;;;;;;;17.77;11.38;;;409.70;2355.20;;;;;;5020855;28;20425;-81
2022/10/27 09:01:35;;;;;;;14.73;10.20;;;384.90;2329.60;;;;;;4995532;28;20041;-81
2022/10/27 09:04:24;;;;;;;22.88;13.15;;;409.80;2355.20;;;;;;5014663;28;20034;-80
2022/10/27 09:07:05;;;;;;;15.45;9.38;;;;;;;;;;5016497;28;20026;-80
2022/10/27 09:09:36;;;;;;;18.05;10.90;;;;;;;;;;5024350;28;20030;-79
2022/10/27 09:12:09;;;;;;;23.77;11.63;;;;;;;;;;5014842;28;20025;-80
2022/10/27 09:15:14;;;;;;;26.88;15.52;;;;;;;;;;5017347;28;20045;-80
2022/10/27 09:17:47;;;;;;;17.35;11.63;;;;;;;;;;4921616;29;20023;-80
2022/10/27 09:20:39;;;;;;;19.23;11.32;;;;;;;;;;4920500;29;20118;-81
2022/10/27 09:23:10;;;;;;;24.83;13.50;;;;;;;;;;4974309;28;20088;-80
2022/10/27 09:25:39;;;;;;;19.52;11.43;;;435.20;2355.20;;;;;;5014483;28;20523;-80
2022/10/27 09:28:07;;;;;;;17.00;10.93;;;410.30;2355.20;;;;;;5014849;28;20030;-79
2022/10/27 09:30:36;;;;;;;19.67;10.95;;;410.50;2355.20;;;;;;5014888;28;20157;-80
2022/10/27 09:33:09;;;;;;;16.20;10.40;;;;;;;;;;5016278;28;20560;-80
2022/10/27 09:35:35;;;;;;;15.25;9.40;;;;;;;;;;5014608;28;20054;-80
2022/10/27 09:38:01;;;;;;;16.55;9.10;;;;;;;;;;5014295;28;20018;-80
2022/10/27 09:40:31;;;;;;;19.70;9.10;;;;;;;;;;5021392;28;20111;-80
2022/10/27 09:42:59;;;;;;;14.15;9.07;;;;;;;;;;5028321;28;20037;-81
2022/10/27 09:45:27;;;;;;;14.27;8.57;;;;;;;;;;5023893;28;20058;-80
2022/10/27 09:47:55;;;;;;;16.75;10.23;;;;;;;;;;5015505;28;20057;-81
2022/10/27 09:50:23;;;;;;;16.70;9.25;;;;;;;;;;5014358;28;20026;-81
2022/10/27 09:52:49;;;;;;;13.88;8.57;;;;;;;;;;5018249;28;20118;-80
2022/10/27 09:55:16;;;;;;;15.48;9.18;;;;;;;;;;5027242;28;20057;-81
2022/10/27 09:57:42;;;;;;;15.68;8.82;;;;;;;;;;5014367;28;20022;-81
2022/10/27 10:00:22;;;;;;;19.25;9.80;;;;;;;;;;5014031;28;20387;-81
2022/10/27 10:03:01;;;;;;;15.57;10.23;;;;;;;;;;5017433;28;20037;-81
2022/10/27 10:05:30;;;;;;;20.38;10.48;;;461.20;2380.80;;;;;;5024819;28;20026;-82
2022/10/27 10:08:24;;;;;;;14.88;9.45;;;461.40;2380.80;;;;;;5022581;28;20495;-80
2022/10/27 10:11:02;;;;;;;14.68;7.43;;;461.40;2380.80;;;;;;5014053;28;20120;-81
2022/10/27 10:13:30;;;;;;;14.55;8.00;;;461.30;2380.80;;;;;;5014014;28;20029;-80
2022/10/27 10:16:10;;;;;;;16.50;8.32;;;461.30;2380.80;;;;;;5015389;28;20036;-81
2022/10/27 10:18:37;;;;;;;14.30;8.60;;;461.30;2380.80;;;;;;5015578;28;20028;-81
2022/10/27 10:21:05;;;;;;;15.40;7.85;;;;;;;;;;5014012;28;20022;-80
2022/10/27 10:23:33;;;;;;;11.30;7.22;;;;;;;;;;5014200;28;20025;-80
2022/10/27 10:26:02;;;;;;;11.10;8.05;;;486.70;2380.80;;;;;;5014128;28;20562;-81
2022/10/27 10:28:43;;;;;;;13.70;7.78;;;486.70;2380.80;;;;;;5014397;28;20029;-80
2022/10/27 10:31:13;;;;;;;13.32;8.57;;;487.00;2380.80;;;;;;5013774;28;20026;-81
2022/10/27 10:33:43;;;;;;;13.43;8.48;;;486.90;2380.80;;;;;;5013463;28;20057;-80
2022/10/27 10:36:24;;;;;;;12.93;8.85;;;487.20;2380.80;;;;;;5013582;28;20124;-81
2022/10/27 10:38:54;;;;;;;19.05;7.70;;;487.30;2380.80;;;;;;5013422;28;20022;-81
2022/10/27 10:41:20;;;;;;;12.55;7.85;;;487.30;2380.80;;;;;;5013318;28;20100;-81
2022/10/27 10:44:06;;;;;;;13.18;7.55;;;487.30;2380.80;;;;;;5014455;28;20029;-79
2022/10/27 10:46:33;;;;;;;14.02;8.32;;;;;;;;;;5013212;28;20462;-79
2022/10/27 10:49:00;;;;;;;10.60;7.15;;;;;;;;;;5014584;28;20093;-79
2022/10/27 10:51:30;;;;;;;11.60;6.93;;;;;;;;;;5013718;28;20033;-83
2022/10/27 10:54:07;;;;;;;13.52;8.13;;;;;;;;;;5020262;28;20089;-83
2022/10/27 10:56:34;;;;;;;10.45;7.07;;;;;;;;;;5014202;28;20029;-81
2022/10/27 10:59:00;;;;;;;14.18;7.65;;;;;;;;;;5016539;28;20475;-80
2022/10/27 11:01:37;;;;;;;10.52;7.28;;;;;;;;;;5012962;28;20025;-81
2022/10/27 11:04:04;;;;;;;10.20;7.00;;;;;;;;;;5012941;28;20165;-81
2022/10/27 11:06:30;;;;;;;11.13;7.15;;;512.80;2380.80;;;;;;5013115;28;20467;-80
2022/10/27 11:09:00;;;;;;;9.38;6.13;;;537.70;2380.80;;;;;;5013090;28;20033;-81
2022/10/27 11:11:28;;;;;;;14.35;7.05;;;;;;;;;;5013331;28;20476;-82
2022/10/27 11:14:05;;;;;;;14.77;7.68;;;;;;;;;;5013377;28;20037;-83
2022/10/27 11:16:34;;;;;;;10.10;7.30;;;538.50;2304.00;;;;;;5013176;28;20034;-84
2022/10/27 11:19:01;;;;;;;11.48;6.38;;;;;;;;;;5013655;28;20056;-83
2022/10/27 11:21:46;;;;;;;13.82;7.30;;;;;;;;;;5013755;28;20030;-84
2022/10/27 11:24:15;;;;;;;13.82;6.57;;;;;;;;;;5014030;28;20449;-83
2022/10/27 11:26:46;;;;;;;11.57;7.18;;;;;;;;;;5013422;28;20037;-84
2022/10/27 11:29:26;;;;;;;19.48;11.07;;;;;;;;;;5029110;28;20023;-84
2022/10/27 11:31:57;;;;;;;12.02;6.95;;;588.80;2227.20;;;;;;5033514;28;20049;-83
2022/10/27 11:34:37;;;;;;;11.70;7.40;;;589.00;2227.20;;;;;;5018948;28;20084;-81
2022/10/27 11:37:45;;;;;;;10.05;6.13;;;589.50;2176.00;;;;;;4995414;28;20528;-84
2022/10/27 11:40:11;;;;;;;9.98;6.28;;;;;;;;;;4994821;28;20062;-84
2022/10/27 11:42:59;;;;;;;13.45;5.88;;;;;;;;;;5015442;28;20078;-83
2022/10/27 11:45:51;;;;;;;9.45;5.90;;;614.70;2099.20;;;;;;5019481;28;20057;-81
2022/10/27 11:48:28;;;;;;;9.90;6.10;;;;;;;;;;4994445;28;20035;-82
2022/10/27 11:50:57;;;;;;;10.18;6.15;;;;;;;;;;4993399;28;20014;-84
2022/10/27 11:53:23;;;;;;;15.07;8.10;;;;;;;;;;4997027;28;20454;-83
2022/10/27 11:55:58;;;;;;;10.50;6.57;;;;;;;;;;5033627;28;20026;-83
2022/10/27 11:58:43;;;;;;;8.48;6.07;;;;;;;;;;5049532;28;20045;-82
2022/10/27 12:01:18;;;;;;;13.02;6.00;;;;;;;;;;5057694;28;20025;-83
2022/10/27 12:04:03;;;;;;;10.50;6.32;;;;;;;;;;5052851;28;20022;-82
2022/10/27 12:06:32;;;;;;;14.43;6.85;;;;;;;;;;5035800;28;20111;-83
2022/10/27 12:09:13;;;;;;;15.68;9.80;;;614.70;2048.00;;;;;;5035963;28;20025;-82
2022/10/27 12:11:47;;;;;;;10.55;8.20;;;;;;;;;;5053923;28;20053;-82
2022/10/27 12:14:40;;;;;;;15.75;7.75;;;614.80;2048.00;;;;;;5036551;28;20060;-83
2022/10/27 12:17:50;;;;;;;13.13;6.97;;;589.70;2048.00;;;;;;5042721;28;20021;-83
2022/10/27 12:20:25;;;;;;;11.05;5.53;;;589.30;2048.00;;;;;;5023903;28;20033;-82
2022/10/27 12:23:07;;;;;;;12.13;7.22;;;589.50;2073.60;;;;;;5039697;28;20032;-82
2022/10/27 12:25:48;;;;;;;9.60;6.05;;;589.70;2048.00;;;;;;5035902;28;20040;-83
2022/10/27 12:28:15;;;;;;;11.30;7.57;;;614.40;1996.80;;;;;;5036034;28;20025;-84
2022/10/27 12:30:46;;;;;;;13.85;7.15;;;614.50;1971.20;;;;;;5035584;28;20116;-83
2022/10/27 12:33:28;;;;;;;10.90;7.43;;;614.90;1971.20;;;;;;5053845;28;20025;-84
2022/10/27 12:36:00;;;;;;;9.43;6.07;;;;;;;;;;5035818;28;20025;-83
2022/10/27 12:38:26;;;;;;;10.65;6.63;;;;;;;;;;5037229;28;20509;-85
2022/10/27 12:41:10;;;;;;;16.70;8.35;;;;;;;;;;5040066;28;20115;-84
2022/10/27 12:43:50;;;;;;;13.43;6.55;;;;;;;;;;5039507;28;20029;-84
2022/10/27 12:46:44;;;;;;;12.45;6.25;;;640.70;1894.40;;;;;;5039317;28;20490;-84
2022/10/27 12:49:16;;;;;;;12.55;6.18;;;640.70;1894.40;;;;;;5039300;28;20033;-84
2022/10/27 12:51:58;;;;;;;10.07;5.55;;;;;;;;;;5039141;28;20029;-85
2022/10/27 12:54:31;;;;;;;8.43;4.23;;;;;;;;;;5038705;28;20045;-84
2022/10/27 12:57:21;;;;;;;9.25;5.60;;;615.20;1920.00;;;;;;5039011;28;20259;-81
2022/10/27 13:00:02;;;;;;;12.52;7.72;;;615.00;1945.60;;;;;;5056383;28;20466;-82
2022/10/27 13:02:42;;;;;;;18.88;8.15;;;;;;;;;;5039072;28;20025;-84
2022/10/27 13:05:23;;;;;;;12.73;5.78;;;;;;;;;;5038954;28;20029;-83
2022/10/27 13:07:54;;;;;;;12.15;5.22;;;;;;;;;;5039021;28;20026;-85
2022/10/27 13:10:34;;;;;;;14.98;5.88;;;;;;;;;;5039153;28;20048;-84
2022/10/27 13:13:42;;;;;;;10.02;5.32;;;640.20;1868.80;;;;;;5038782;28;20025;-84
2022/10/27 13:16:15;;;;;;;11.27;5.72;;;640.00;1843.20;;;;;;5025831;28;20425;-83
2022/10/27 13:18:45;;;;;;;11.70;5.32;;;;;;;;;;5038565;28;20054;-85
2022/10/27 13:21:11;;;;;;;13.27;6.82;;;;;;;;;;5038836;28;20029;-84
2022/10/27 13:23:37;;;;;;;23.15;13.63;;;;;;;;;;5038779;28;20028;-84
2022/10/27 13:26:17;;;;;;;26.17;17.50;;;;;;;;;;5038545;28;20033;-84
2022/10/27 13:29:02;;;;;;;20.13;8.10;;;;;;;;;;5038807;28;20033;-83
2022/10/27 13:31:28;;;;;;;14.15;8.32;;;;;;;;;;5034043;28;20482;-83
2022/10/27 13:34:02;;;;;;;15.32;6.75;;;;;;;;;;5037609;28;20466;-83
2022/10/27 13:36:28;;;;;;;21.45;12.35;;;;;;;;;;5037551;28;20033;-84
2022/10/27 13:39:21;;;;;;;9.35;6.43;;;;;;;;;;5038222;28;20501;-84
2022/10/27 13:41:50;;;;;;;;;;;;;;;;;;4988918;28;20435;-85